Time;durP1;ratioP1;P1;durP2;ratioP2;P2;SDS_P1;SDS_P2;PMS_P1;PMS_P2;Temp;Humidity;BMP_temperature;BMP_pressure;BME280_temperature;BME280_humidity;BME280_pressure;Samples;Min_cycle;Max_cycle;Signal;HPM_P1;HPM_P2
2022/07/19 00:01:34;;;;;;;;;5.00;4.00;;;;;30.14;24.24;100686.56;5016161;28;45264;-73
2022/07/19 00:04:00;;;;;;;;;7.00;6.00;;;;;30.09;24.05;100689.88;5016009;28;45209;-67
2022/07/19 00:06:25;;;;;;;;;6.50;6.50;;;;;30.05;24.67;100690.41;5016291;28;45253;-65
2022/07/19 00:08:51;;;;;;;;;4.75;4.75;;;;;29.99;24.32;100690.13;5015745;28;46272;-66
2022/07/19 00:11:16;;;;;;;;;8.00;5.00;;;;;29.94;24.34;100695.25;5015827;28;45249;-66
2022/07/19 00:13:42;;;;;;;;;4.25;4.25;;;;;29.84;24.31;100684.69;5016046;28;45661;-69
2022/07/19 00:16:08;;;;;;;;;7.00;5.25;;;;;29.82;24.88;100683.19;5016766;28;45548;-69
2022/07/19 00:18:33;;;;;;;;;10.50;10.50;;;;;29.76;24.92;100683.94;5015262;28;45437;-70
2022/07/19 00:20:58;;;;;;;;;8.50;7.50;;;;;29.64;24.73;100667.28;5015481;28;45274;-70
2022/07/19 00:23:24;;;;;;;;;5.75;5.75;;;;;29.61;24.45;100681.19;5015623;28;45301;-71
2022/07/19 00:25:49;;;;;;;;;5.50;5.50;;;;;29.55;24.75;100678.22;5014607;28;45541;-69
2022/07/19 00:28:14;;;;;;;;;7.25;5.75;;;;;29.50;25.38;100680.63;5016357;28;46112;-70
2022/07/19 00:30:40;;;;;;;;;6.00;5.50;;;;;29.46;25.60;100673.06;5015580;28;45406;-67
2022/07/19 00:33:08;;;;;;;;;6.00;5.00;;;;;29.42;25.38;100678.00;5015753;28;45414;-71
2022/07/19 00:35:35;;;;;;;;;4.75;3.75;;;;;29.37;25.78;100670.41;5015638;28;45319;-70
2022/07/19 00:38:10;;;;;;;;;5.50;3.50;;;;;29.32;25.13;100664.69;5015209;28;45282;-73
2022/07/19 00:40:38;;;;;;;;;5.25;4.50;;;;;29.30;25.66;100664.03;5015656;28;45319;-72
2022/07/19 00:43:04;;;;;;;;;9.00;5.50;;;;;29.28;25.52;100671.50;5015353;28;45244;-72
2022/07/19 00:45:30;;;;;;;;;4.75;4.75;;;;;29.21;25.61;100665.97;5015614;28;45740;-71
2022/07/19 00:47:56;;;;;;;;;4.00;4.00;;;;;29.21;25.60;100663.25;5015268;28;46358;-70
2022/07/19 00:50:22;;;;;;;;;4.25;4.25;;;;;29.13;25.46;100658.75;5015356;28;45955;-70
2022/07/19 00:53:02;;;;;;;;;7.00;6.00;;;;;29.15;25.84;100670.25;5015589;28;45332;-69
2022/07/19 00:55:30;;;;;;;;;4.50;4.50;;;;;29.11;25.67;100668.91;5015730;28;45330;-71
2022/07/19 00:57:59;;;;;;;;;5.25;5.00;;;;;29.05;26.17;100658.00;5015171;28;45528;-68
2022/07/19 01:00:26;;;;;;;;;6.25;4.00;;;;;29.01;25.78;100663.78;5015179;28;45416;-71
2022/07/19 01:02:52;;;;;;;;;6.75;5.00;;;;;28.98;25.64;100664.13;5015378;28;45339;-71
2022/07/19 01:05:18;;;;;;;;;5.00;5.00;;;;;28.93;26.33;100660.28;5015331;28;45170;-70
2022/07/19 01:07:45;;;;;;;;;5.00;5.00;;;;;28.89;26.33;100658.94;5015090;28;45434;-71
2022/07/19 01:10:12;;;;;;;;;6.00;4.75;;;;;28.85;25.89;100663.91;5015544;28;45474;-71
2022/07/19 01:12:39;;;;;;;;;4.50;4.50;;;;;28.79;26.05;100654.63;5015229;28;45542;-72
2022/07/19 01:15:15;;;;;;;;;4.50;4.50;;;;;28.77;26.46;100651.25;5014949;28;45454;-72
2022/07/19 01:17:40;;;;;;;;;3.75;3.75;;;;;28.75;26.12;100652.44;5013456;28;47259;-72
2022/07/19 01:20:07;;;;;;;;;5.75;4.25;;;;;28.68;25.95;100641.47;5014779;28;45276;-70
2022/07/19 01:22:32;;;;;;;;;6.00;3.00;;;;;28.68;26.48;100646.88;5015690;28;45316;-72
2022/07/19 01:24:58;;;;;;;;;5.75;4.00;;;;;28.61;26.31;100651.34;5013186;28;45489;-71
2022/07/19 01:27:23;;;;;;;;;4.00;4.00;;;;;28.63;26.22;100650.16;5015435;28;45365;-70
2022/07/19 01:29:48;;;;;;;;;6.25;4.25;;;;;28.57;26.21;100651.69;5014767;28;45250;-65
2022/07/19 01:32:14;;;;;;;;;5.25;4.00;;;;;28.56;26.87;100651.84;5015003;28;45189;-72
2022/07/19 01:34:39;;;;;;;;;7.25;6.00;;;;;28.51;26.33;100649.72;5016017;28;45185;-71
2022/07/19 01:37:05;;;;;;;;;7.00;6.00;;;;;28.48;26.39;100649.22;5014579;28;46439;-71
2022/07/19 01:39:30;;;;;;;;;6.75;6.75;;;;;28.43;26.59;100645.19;5013123;28;45351;-70
2022/07/19 01:41:55;;;;;;;;;4.75;4.75;;;;;28.41;26.54;100647.22;5014594;28;45494;-70
2022/07/19 01:44:20;;;;;;;;;5.50;5.50;;;;;28.39;26.45;100649.25;5030214;28;45292;-69
2022/07/19 01:46:46;;;;;;;;;4.25;4.25;;;;;28.36;26.60;100641.50;5014703;28;46217;-69
2022/07/19 01:49:11;;;;;;;;;4.75;4.75;;;;;28.34;26.54;100646.25;5030220;28;45328;-71
2022/07/19 01:51:37;;;;;;;;;5.25;3.25;;;;;28.31;26.65;100645.78;5013313;28;45911;-70
2022/07/19 01:54:02;;;;;;;;;7.00;4.00;;;;;28.27;27.11;100646.13;5014632;28;45578;-71
2022/07/19 01:56:28;;;;;;;;;7.25;5.25;;;;;28.24;26.96;100646.47;5014164;28;45412;-69
2022/07/19 01:58:53;;;;;;;;;5.50;5.50;;;;;28.08;27.40;100614.91;5014329;28;45472;-72
2022/07/19 02:01:18;;;;;;;;;7.75;6.00;;;;;28.19;27.15;100639.91;5014668;28;45428;-70
2022/07/19 02:03:44;;;;;;;;;7.50;5.75;;;;;28.17;27.42;100641.94;5015102;28;45372;-72
2022/07/19 02:06:09;;;;;;;;;7.00;5.50;;;;;28.17;27.11;100641.94;5014589;28;46227;-70
2022/07/19 02:08:34;;;;;;;;;6.75;6.75;;;;;28.14;27.58;100646.69;5014116;28;45410;-72
2022/07/19 02:11:34;;;;;;;;;8.00;5.00;;;;;28.13;27.57;100636.88;5014359;28;45235;-71
2022/07/19 02:13:45;;;;;;;;;6.50;6.00;;;;;28.09;27.94;100640.06;5014062;28;45470;-68
2022/07/19 02:16:11;;;;;;;;;6.00;6.00;;;;;28.07;27.28;100631.28;5012635;28;46034;-69
2022/07/19 02:18:36;;;;;;;;;8.75;6.75;;;;;28.05;27.36;100631.47;5014203;28;45334;-70
2022/07/19 02:21:01;;;;;;;;;6.25;6.25;;;;;28.00;27.33;100629.28;5014088;28;45292;-71
2022/07/19 02:23:26;;;;;;;;;6.75;5.25;;;;;27.98;27.49;100631.34;5013050;28;45475;-71
2022/07/19 02:25:52;;;;;;;;;6.00;6.00;;;;;27.93;28.11;100627.47;5014027;28;45461;-69
2022/07/19 02:28:17;;;;;;;;;1.00;1.00;;;;;27.91;27.81;100621.41;5013937;28;45294;-70
2022/07/19 02:30:43;;;;;;;;;5.00;5.00;;;;;27.89;27.55;100621.56;5014412;28;45282;-71
2022/07/19 02:33:08;;;;;;;;;4.25;4.25;;;;;27.88;28.10;100625.28;5014607;28;45569;-71
2022/07/19 02:35:33;;;;;;;;;6.00;6.00;;;;;27.79;27.83;100610.97;5014159;28;46829;-69
2022/07/19 02:37:58;;;;;;;;;8.00;7.25;;;;;27.81;28.09;100614.34;5017664;28;45191;-69
2022/07/19 02:40:24;;;;;;;;;6.50;6.50;;;;;27.79;28.45;100616.38;5017882;28;45389;-69
2022/07/19 02:42:49;;;;;;;;;6.75;6.75;;;;;27.75;28.00;100617.75;5017469;28;45426;-70
2022/07/19 02:45:14;;;;;;;;;6.75;5.50;;;;;27.72;28.25;100612.69;5017351;28;45333;-69
2022/07/19 02:47:40;;;;;;;;;0.00;0.00;;;;;27.60;28.28;100585.19;5017197;28;45442;-71
2022/07/19 02:50:06;;;;;;;;;7.00;6.75;;;;;27.65;28.44;100600.91;5017570;28;45266;-73
2022/07/19 02:52:31;;;;;;;;;7.75;7.25;;;;;27.66;28.47;100608.81;5018511;28;45486;-71
2022/07/19 02:54:57;;;;;;;;;5.75;5.75;;;;;27.58;28.52;100599.91;5017045;28;45370;-70
2022/07/19 02:57:22;;;;;;;;;7.75;6.00;;;;;27.60;28.27;100606.81;5017010;28;45269;-70
2022/07/19 02:59:47;;;;;;;;;8.00;7.00;;;;;27.45;28.30;100586.91;5017151;28;45766;-66
2022/07/19 03:02:12;;;;;;;;;7.50;5.00;;;;;27.55;28.87;100601.09;5017346;28;45430;-66
2022/07/19 03:04:38;;;;;;;;;6.00;6.00;;;;;27.53;28.58;100606.66;5016675;28;46432;-66
2022/07/19 03:07:03;;;;;;;;;8.00;7.50;;;;;27.50;29.87;100607.00;5016780;28;45407;-75
2022/07/19 03:09:29;;;;;;;;;14.25;14.00;;;;;27.48;29.74;100598.19;5020248;28;45293;-85
2022/07/19 03:11:54;;;;;;;;;7.25;6.50;;;;;27.49;29.30;100605.31;5022063;28;45268;-77
2022/07/19 03:14:19;;;;;;;;;7.50;7.50;;;;;27.48;29.47;100598.19;5018842;28;46025;-69
2022/07/19 03:16:45;;;;;;;;;8.00;6.25;;;;;27.45;29.17;100598.53;5016823;28;45344;-68
2022/07/19 03:19:10;;;;;;;;;8.50;6.25;;;;;27.41;28.91;100597.19;5016557;28;46398;-68
2022/07/19 03:21:35;;;;;;;;;9.25;7.50;;;;;27.44;29.49;100598.72;5016660;28;45240;-69
2022/07/19 03:24:01;;;;;;;;;9.00;7.50;;;;;27.44;29.07;100598.72;5016812;28;45244;-69
2022/07/19 03:26:26;;;;;;;;;10.50;8.00;;;;;27.39;29.28;100596.53;5016701;28;45243;-68
2022/07/19 03:28:52;;;;;;;;;10.75;7.75;;;;;27.41;29.42;100608.00;5016771;28;45321;-68
2022/07/19 03:31:18;;;;;;;;;9.75;8.00;;;;;27.38;29.00;100594.84;5016895;28;45463;-69
2022/07/19 03:33:43;;;;;;;;;6.75;6.75;;;;;27.37;29.70;100593.16;5016548;28;46160;-69
2022/07/19 03:36:09;;;;;;;;;11.75;9.00;;;;;27.27;29.38;100586.09;5016829;28;45313;-69
2022/07/19 03:38:34;;;;;;;;;8.00;7.00;;;;;27.33;29.81;100599.91;5031687;28;45361;-69
2022/07/19 03:40:59;;;;;;;;;9.50;8.75;;;;;27.29;29.58;100598.56;5016696;28;45589;-69
2022/07/19 03:43:25;;;;;;;;;7.50;7.50;;;;;27.20;29.59;100595.06;5015932;28;45909;-69
2022/07/19 03:45:50;;;;;;;;;7.75;7.75;;;;;27.22;29.73;100610.06;5016158;28;45363;-69
2022/07/19 03:48:17;;;;;;;;;6.25;6.00;;;;;27.19;29.87;100605.00;5016348;28;45522;-69
2022/07/19 03:50:43;;;;;;;;;7.00;7.00;;;;;27.13;29.54;100600.28;5016429;28;45356;-69
2022/07/19 03:53:08;;;;;;;;;7.50;7.50;;;;;27.10;30.12;100604.19;5015944;28;45341;-69
2022/07/19 03:55:34;;;;;;;;;8.50;8.00;;;;;27.06;30.00;100602.84;5016061;28;45567;-68
2022/07/19 03:58:00;;;;;;;;;7.50;7.25;;;;;27.03;29.81;100600.44;5016463;28;45313;-69
2022/07/19 04:00:26;;;;;;;;;12.25;9.00;;;;;27.00;30.44;100591.88;5016313;28;45234;-68
2022/07/19 04:02:51;;;;;;;;;8.25;8.25;;;;;26.98;29.87;100592.03;5016110;28;45241;-68
2022/07/19 04:05:16;;;;;;;;;8.25;7.75;;;;;26.94;30.05;100596.94;5016230;28;45237;-68
2022/07/19 04:07:42;;;;;;;;;8.00;8.00;;;;;26.95;30.56;100598.63;5016268;28;45217;-67
2022/07/19 04:10:08;;;;;;;;;8.00;8.00;;;;;26.93;30.14;100608.72;5016456;28;45668;-68
2022/07/19 04:12:34;;;;;;;;;9.50;8.25;;;;;26.91;30.39;100594.56;5015628;28;45376;-68
2022/07/19 04:15:00;;;;;;;;;9.50;9.50;;;;;26.92;29.97;100603.50;5016342;28;45352;-70
2022/07/19 04:17:26;;;;;;;;;7.50;7.50;;;;;26.90;30.51;100594.72;5015092;28;45343;-70
2022/07/19 04:19:51;;;;;;;;;10.00;9.00;;;;;26.90;30.41;100603.69;5016060;28;45554;-69
2022/07/19 04:22:17;;;;;;;;;8.25;8.25;;;;;26.91;30.47;100599.97;5015800;28;46284;-69
2022/07/19 04:24:42;;;;;;;;;8.75;8.75;;;;;26.91;30.39;100593.72;5015512;28;45386;-70
2022/07/19 04:27:09;;;;;;;;;7.75;7.75;;;;;26.90;30.30;100595.56;5015673;28;45411;-69
2022/07/19 04:29:34;;;;;;;;;9.00;9.00;;;;;26.90;30.47;100592.88;5014282;28;45474;-69
2022/07/19 04:31:59;;;;;;;;;8.25;6.50;;;;;26.92;30.43;100593.56;5015335;28;45520;-69
2022/07/19 04:34:25;;;;;;;;;10.75;9.00;;;;;26.92;30.46;100607.06;5015346;28;45385;-69
2022/07/19 04:36:50;;;;;;;;;8.50;8.50;;;;;26.93;30.22;100591.69;5015555;28;45374;-69
2022/07/19 04:39:15;;;;;;;;;11.00;11.00;;;;;26.94;30.76;100591.53;5015472;28;45208;-69
2022/07/19 04:41:41;;;;;;;;;8.75;8.75;;;;;26.95;30.44;100593.22;5015103;28;45335;-68
2022/07/19 04:44:06;;;;;;;;;10.00;10.00;;;;;26.96;30.46;100596.75;5015338;28;45426;-68
2022/07/19 04:46:31;;;;;;;;;15.75;10.75;;;;;26.94;30.29;100588.84;5015534;28;45721;-69
2022/07/19 04:48:57;;;;;;;;;7.00;7.00;;;;;26.97;30.55;100587.63;5015791;28;45552;-68
2022/07/19 04:51:22;;;;;;;;;9.25;9.25;;;;;26.99;30.39;100591.00;5015630;28;45525;-69
2022/07/19 04:53:48;;;;;;;;;10.25;7.25;;;;;26.97;30.25;100576.84;5014182;28;45357;-68
2022/07/19 04:56:13;;;;;;;;;9.00;9.00;;;;;27.03;30.45;100586.13;5014042;28;45286;-68
2022/07/19 04:58:38;;;;;;;;;9.25;9.25;;;;;27.05;30.58;100584.97;5014322;28;45298;-69
2022/07/19 05:01:04;;;;;;;;;13.00;13.00;;;;;27.10;30.42;100579.88;5015048;28;45324;-67
2022/07/19 05:03:29;;;;;;;;;15.75;15.75;;;;;27.11;30.21;100576.19;5014817;28;45297;-68
2022/07/19 05:05:55;;;;;;;;;12.50;12.25;;;;;27.20;30.47;100570.75;5015040;28;45342;-67
2022/07/19 05:08:20;;;;;;;;;14.25;13.00;;;;;27.24;30.35;100570.22;5015656;28;45312;-68
2022/07/19 05:10:45;;;;;;;;;10.00;10.00;;;;;27.29;30.00;100572.44;5015047;28;46456;-71
2022/07/19 05:13:11;;;;;;;;;11.75;10.00;;;;;27.40;30.48;100569.38;5015304;28;45416;-71
2022/07/19 05:15:36;;;;;;;;;10.25;10.25;;;;;27.62;30.22;100585.03;5016276;28;45684;-66
2022/07/19 05:18:02;;;;;;;;;13.00;11.25;;;;;27.82;30.09;100578.19;5015771;28;45431;-70
2022/07/19 05:20:27;;;;;;;;;11.00;9.25;;;;;28.03;29.38;100574.03;5015100;28;45448;-70
2022/07/19 05:22:53;;;;;;;;;9.00;9.00;;;;;28.23;29.58;100579.03;5014101;28;45678;-70
2022/07/19 05:25:18;;;;;;;;;11.00;10.00;;;;;28.43;28.73;100580.25;5014702;28;45384;-69
2022/07/19 05:27:44;;;;;;;;;9.50;9.50;;;;;28.62;28.72;100585.38;5015528;28;45406;-72
2022/07/19 05:30:10;;;;;;;;;10.50;8.75;;;;;28.81;28.48;100582.19;5015962;28;46265;-73
2022/07/19 05:32:36;;;;;;;;;12.25;10.75;;;;;28.96;28.83;100575.97;5016135;28;45377;-68
2022/07/19 05:35:02;;;;;;;;;12.50;10.50;;;;;29.11;28.89;100579.56;5014974;28;45244;-70
2022/07/19 05:37:27;;;;;;;;;13.50;12.00;;;;;29.24;28.87;100578.94;5014725;28;45617;-71
2022/07/19 05:39:52;;;;;;;;;11.50;11.00;;;;;29.32;27.74;100574.44;5014624;28;50240;-71
2022/07/19 05:42:18;;;;;;;;;12.75;11.50;;;;;29.44;27.66;100579.28;5014215;28;45480;-70
2022/07/19 05:44:43;;;;;;;;;9.75;9.75;;;;;29.52;27.53;100583.72;5014491;28;45431;-69
2022/07/19 05:47:08;;;;;;;;;10.75;10.00;;;;;29.63;28.16;100573.44;5014651;28;45454;-68
2022/07/19 05:49:34;;;;;;;;;12.50;11.00;;;;;29.70;28.39;100579.84;5014051;28;45471;-68
2022/07/19 05:51:59;;;;;;;;;12.50;10.75;;;;;29.76;27.55;100584.50;5014110;28;45283;-67
2022/07/19 05:54:24;;;;;;;;;13.25;11.25;;;;;29.80;28.06;100579.53;5014756;28;45337;-66
2022/07/19 05:56:50;;;;;;;;;11.75;10.25;;;;;29.81;27.58;100563.09;5013362;28;45503;-71
2022/07/19 05:59:15;;;;;;;;;11.75;11.75;;;;;29.84;27.82;100573.53;5014112;28;45444;-72
2022/07/19 06:01:41;;;;;;;;;18.75;16.75;;;;;29.85;27.51;100577.94;5013912;28;45275;-70
2022/07/19 06:04:06;;;;;;;;;12.75;11.50;;;;;29.84;28.24;100570.84;5013880;28;45713;-70
2022/07/19 06:06:33;;;;;;;;;13.00;11.00;;;;;29.83;27.61;100569.16;5014102;28;45655;-71
2022/07/19 06:09:00;;;;;;;;;10.75;10.00;;;;;29.79;27.64;100569.72;5013714;28;47058;-71
2022/07/19 06:11:26;;;;;;;;;13.50;11.00;;;;;29.74;27.55;100576.53;5017020;28;45944;-65
2022/07/19 06:13:52;;;;;;;;;14.50;11.25;;;;;29.68;28.35;100576.44;5017834;28;45297;-71
2022/07/19 06:16:18;;;;;;;;;14.50;10.25;;;;;29.61;28.21;100564.66;5017621;28;45178;-70
2022/07/19 06:18:44;;;;;;;;;14.50;11.50;;;;;29.56;27.90;100570.66;5017353;28;46121;-66
2022/07/19 06:21:12;;;;;;;;;12.25;12.25;;;;;29.46;27.99;100554.69;5017363;28;45339;-69
2022/07/19 06:23:39;;;;;;;;;10.50;10.50;;;;;29.43;28.31;100564.03;5016924;28;45375;-68
2022/07/19 06:26:05;;;;;;;;;13.25;13.25;;;;;29.38;28.45;100558.31;5017604;28;45363;-69
2022/07/19 06:28:31;;;;;;;;;18.00;15.00;;;;;29.37;28.97;100555.78;5017104;28;45404;-72
2022/07/19 06:30:56;;;;;;;;;1.00;1.00;;;;;29.31;28.68;100549.25;5017639;28;45331;-66
2022/07/19 06:33:21;;;;;;;;;15.75;14.50;;;;;29.28;28.65;100544.22;5017135;28;45239;-71
2022/07/19 06:35:47;;;;;;;;;14.75;12.00;;;;;29.29;28.41;100554.84;5017337;28;45515;-71
2022/07/19 06:38:12;;;;;;;;;11.50;11.50;;;;;29.26;29.07;100546.25;5016911;28;46404;-69
2022/07/19 06:40:38;;;;;;;;;13.25;13.25;;;;;29.24;28.61;100543.72;5032105;28;45751;-71
2022/07/19 06:43:03;;;;;;;;;12.50;12.25;;;;;29.23;29.12;100542.03;5016978;28;45284;-71
2022/07/19 06:45:29;;;;;;;;;18.25;14.50;;;;;29.23;28.66;100538.50;5017112;28;45570;-72
2022/07/19 06:47:54;;;;;;;;;14.50;11.50;;;;;29.25;28.65;100537.28;5019412;28;46248;-67
2022/07/19 06:50:20;;;;;;;;;11.00;11.00;;;;;29.28;29.03;100538.78;5025220;28;45411;-72
2022/07/19 06:52:45;;;;;;;;;13.50;12.25;;;;;29.33;28.94;100535.50;5017138;28;45374;-71
2022/07/19 06:55:11;;;;;;;;;15.50;11.00;;;;;29.29;28.61;100514.22;5035563;28;45630;-74
2022/07/19 06:57:36;;;;;;;;;14.75;14.25;;;;;29.42;28.52;100529.00;5038865;28;45805;-71
2022/07/19 07:00:05;;;;;;;;;16.50;16.00;;;;;29.45;28.57;100520.50;5034523;28;45381;-76
2022/07/19 07:02:30;;;;;;;;;17.00;16.25;;;;;29.54;29.48;100532.91;5018996;28;45345;-75
2022/07/19 07:04:56;;;;;;;;;18.75;15.75;;;;;29.59;28.36;100525.03;5036753;28;45522;-75
2022/07/19 07:07:21;;;;;;;;;10.25;9.75;;;;;29.66;28.33;100529.72;5036327;28;45645;-72
2022/07/19 07:09:47;;;;;;;;;12.50;10.25;;;;;29.71;28.52;100517.28;5018354;28;45316;-77
2022/07/19 07:12:12;;;;;;;;;14.00;12.25;;;;;29.79;28.30;100538.03;5027847;28;45338;-69
2022/07/19 07:14:37;;;;;;;;;12.00;12.00;;;;;29.80;28.75;100525.31;5036966;28;45216;-66
2022/07/19 07:17:03;;;;;;;;;12.75;10.75;;;;;29.87;28.26;100527.06;5036952;28;46364;-67
2022/07/19 07:19:29;;;;;;;;;12.75;12.00;;;;;29.93;28.35;100528.16;5032949;28;45469;-68
2022/07/19 07:21:57;;;;;;;;;17.75;16.25;;;;;30.00;29.01;100522.88;5035679;28;45340;-69
2022/07/19 07:24:23;;;;;;;;;14.75;11.75;;;;;30.09;28.75;100529.00;5036479;28;45578;-69
2022/07/19 07:26:48;;;;;;;;;14.25;13.50;;;;;30.16;28.13;100525.34;5032143;28;45589;-69
2022/07/19 07:29:14;;;;;;;;;15.50;15.00;;;;;30.24;28.35;100526.25;5021369;28;45542;-64
2022/07/19 07:31:39;;;;;;;;;11.50;11.50;;;;;30.30;28.54;100517.31;5015829;28;45328;-67
2022/07/19 07:34:04;;;;;;;;;14.25;13.00;;;;;30.38;28.69;100517.19;5016170;28;45371;-68
2022/07/19 07:36:30;;;;;;;;;12.25;11.50;;;;;30.49;28.10;100513.13;5034520;28;45396;-70
2022/07/19 07:38:55;;;;;;;;;11.75;11.75;;;;;30.56;27.62;100514.03;5026747;28;45495;-68
2022/07/19 07:41:21;;;;;;;;;14.75;11.50;;;;;30.63;27.55;100507.84;5015643;28;45197;-74
2022/07/19 07:43:46;;;;;;;;;12.25;12.25;;;;;30.72;28.12;100507.47;5014672;28;45578;-72
2022/07/19 07:46:11;;;;;;;;;14.75;14.75;;;;;30.76;28.10;100502.50;5024972;28;45458;-64
2022/07/19 07:48:37;;;;;;;;;11.00;11.00;;;;;30.84;27.65;100504.25;5018413;28;45265;-69
2022/07/19 07:51:02;;;;;;;;;14.25;12.75;;;;;30.94;27.49;100506.59;5015749;28;45375;-64
2022/07/19 07:53:27;;;;;;;;;12.25;12.25;;;;;31.00;27.34;100503.94;5015825;28;45545;-66
2022/07/19 07:55:53;;;;;;;;;16.25;14.75;;;;;31.07;27.50;100495.81;5015289;28;45402;-67
2022/07/19 07:58:18;;;;;;;;;3.50;3.00;;;;;31.17;27.15;100499.03;5015689;28;45252;-66
2022/07/19 08:00:44;;;;;;;;;16.50;13.25;;;;;31.24;27.16;100490.09;5015764;28;45300;-64
2022/07/19 08:03:09;;;;;;;;;14.50;13.75;;;;;31.37;27.05;100497.47;5016014;28;45255;-65
2022/07/19 08:05:35;;;;;;;;;14.75;13.25;;;;;31.45;26.97;100491.88;5015344;28;46483;-65
2022/07/19 08:08:01;;;;;;;;;30.00;27.25;;;;;31.52;26.96;100492.75;5016028;28;45461;-66
2022/07/19 08:10:31;;;;;;;;;16.75;15.25;;;;;31.60;26.79;100487.13;5030903;28;45396;-67
2022/07/19 08:12:57;;;;;;;;;12.00;12.00;;;;;31.70;26.35;100484.03;5031258;28;45565;-66
2022/07/19 08:15:22;;;;;;;;;16.75;15.50;;;;;31.79;26.38;100486.59;5015351;28;45342;-65
2022/07/19 08:17:47;;;;;;;;;13.50;13.50;;;;;31.86;26.12;100477.44;5030480;28;45382;-65
2022/07/19 08:20:13;;;;;;;;;14.25;14.25;;;;;31.95;26.04;100469.91;5015589;28;45222;-65
2022/07/19 08:22:39;;;;;;;;;12.75;11.50;;;;;32.05;26.29;100472.22;5015569;28;45318;-66
2022/07/19 08:25:06;;;;;;;;;13.50;12.50;;;;;32.15;25.94;100478.09;5015176;28;46159;-65
2022/07/19 08:27:33;;;;;;;;;11.50;11.50;;;;;32.26;26.10;100473.09;5015565;28;45381;-65
2022/07/19 08:29:58;;;;;;;;;16.50;15.00;;;;;32.34;25.83;100462.03;5014146;28;45356;-65
2022/07/19 08:32:24;;;;;;;;;12.75;12.75;;;;;32.41;25.89;100453.88;5015416;28;45346;-66
2022/07/19 08:34:49;;;;;;;;;10.50;10.50;;;;;32.52;25.31;100458.69;5014922;28;45562;-67
2022/07/19 08:37:14;;;;;;;;;13.75;12.75;;;;;32.62;25.21;100458.25;5014873;28;45320;-65
2022/07/19 08:39:40;;;;;;;;;14.50;13.00;;;;;32.70;24.85;100460.75;5014439;28;45331;-66
2022/07/19 08:42:05;;;;;;;;;11.75;11.75;;;;;32.78;25.11;100465.97;5014712;28;45428;-66
2022/07/19 08:44:35;;;;;;;;;10.75;10.75;;;;;32.89;24.58;100464.53;5014699;28;46254;-65
2022/07/19 08:47:01;;;;;;;;;11.25;11.25;;;;;32.97;24.92;100458.03;5013166;28;45443;-65
2022/07/19 08:49:27;;;;;;;;;14.50;13.00;;;;;33.07;24.82;100458.41;5014705;28;45339;-65
2022/07/19 08:51:53;;;;;;;;;12.75;12.75;;;;;33.18;24.89;100445.16;5014781;28;45310;-66
2022/07/19 08:54:19;;;;;;;;;13.25;13.25;;;;;33.26;24.60;100449.53;5014744;28;46097;-66
2022/07/19 08:59:30;;;;;;;;;12.75;11.75;;;;;33.45;23.90;100447.81;5014666;28;45383;-67
2022/07/19 09:01:56;;;;;;;;;13.50;12.25;;;;;33.54;24.74;100445.69;5015136;28;45622;-66
2022/07/19 09:04:24;;;;;;;;;13.25;13.25;;;;;33.63;24.23;100441.63;5014739;28;46495;-67
2022/07/19 09:06:53;;;;;;;;;13.25;13.25;;;;;33.73;23.74;100450.19;5014733;28;45478;-66
2022/07/19 09:09:24;;;;;;;;;14.75;13.75;;;;;33.82;23.83;100430.81;5014510;28;45483;-66
2022/07/19 09:11:52;;;;;;;;;15.00;13.50;;;;;33.92;23.56;100445.63;5014677;28;45269;-69
2022/07/19 09:14:22;;;;;;;;;12.25;12.00;;;;;34.03;23.55;100440.59;5014420;28;46155;-66
2022/07/19 09:16:56;;;;;;;;;14.25;13.75;;;;;34.14;23.52;100442.59;5014425;28;45420;-66
2022/07/19 09:19:23;;;;;;;;;17.50;14.25;;;;;34.22;23.19;100431.41;5014755;28;45407;-67
2022/07/19 09:21:55;;;;;;;;;14.67;13.33;;;;;34.36;23.19;100431.28;5014659;28;45590;-66
2022/07/19 09:24:22;;;;;;;;;12.00;12.00;;;;;34.47;23.10;100430.56;5014424;28;47711;-68
2022/07/19 09:27:05;;;;;;;;;12.75;10.50;;;;;34.58;22.54;100418.09;5014341;28;45430;-66
2022/07/19 09:29:32;;;;;;;;;15.25;13.00;;;;;34.70;22.19;100422.81;5014552;28;45223;-67
2022/07/19 09:32:01;;;;;;;;;14.25;11.75;;;;;34.79;21.63;100421.44;5014789;28;45438;-66
2022/07/19 09:34:52;;;;;;;;;12.25;10.75;;;;;34.90;20.76;100411.63;5014363;28;45602;-66
2022/07/19 09:37:22;;;;;;;;;13.25;11.00;;;;;34.99;20.62;100413.03;5015022;28;45506;-67
2022/07/19 09:40:06;;;;;;;;;11.75;11.75;;;;;35.10;20.65;100406.81;5014768;28;45330;-66
2022/07/19 09:42:42;;;;;;;;;13.25;11.75;;;;;35.23;20.14;100416.72;5014640;28;45340;-67
2022/07/19 09:45:11;;;;;;;;;9.50;8.50;;;;;35.32;19.76;100411.78;5015541;28;46181;-66
2022/07/19 09:47:40;;;;;;;;;9.75;9.75;;;;;35.41;20.23;100406.81;5018163;28;45378;-66
2022/07/19 09:50:16;;;;;;;;;11.75;10.50;;;;;35.50;20.25;100402.72;5018036;28;45474;-66
2022/07/19 09:52:43;;;;;;;;;12.00;9.00;;;;;35.58;19.71;100407.03;5017932;28;45558;-66
2022/07/19 09:55:09;;;;;;;;;11.75;10.50;;;;;35.67;19.66;100402.91;5017903;28;45390;-67
2022/07/19 09:57:40;;;;;;;;;9.50;8.25;;;;;35.77;19.50;100390.56;5033475;28;45537;-66
2022/07/19 10:00:07;;;;;;;;;10.25;10.25;;;;;35.83;19.67;100389.63;5018125;28;45404;-65
2022/07/19 10:02:38;;;;;;;;;12.00;12.00;;;;;35.93;19.67;100389.06;5017961;28;45521;-67
2022/07/19 10:05:05;;;;;;;;;10.50;10.50;;;;;36.05;19.68;100389.09;5017430;28;45735;-64
2022/07/19 10:07:32;;;;;;;;;11.00;10.00;;;;;36.15;19.83;100383.88;5017351;28;45462;-66
2022/07/19 10:10:11;;;;;;;;;12.25;12.00;;;;;36.19;19.14;100376.88;5017329;28;45370;-66
2022/07/19 10:12:38;;;;;;;;;9.00;9.00;;;;;36.29;18.99;100370.78;5017838;28;45339;-65
2022/07/19 10:15:05;;;;;;;;;8.50;8.50;;;;;36.39;18.88;100378.41;5015982;28;45806;-66
2022/07/19 10:17:38;;;;;;;;;8.00;8.00;;;;;36.47;18.42;100371.72;5016910;28;45361;-67
2022/07/19 10:20:06;;;;;;;;;12.50;12.00;;;;;36.56;18.96;100367.56;5017576;28;45340;-67
2022/07/19 10:22:33;;;;;;;;;11.75;9.00;;;;;36.64;18.70;100363.63;5017240;28;45325;-65
2022/07/19 10:25:09;;;;;;;;;11.00;9.75;;;;;36.71;18.21;100360.78;5017017;28;45348;-64
2022/07/19 10:27:38;;;;;;;;;10.50;10.50;;;;;36.80;18.49;100360.13;5017455;28;45335;-66
2022/07/19 10:30:07;;;;;;;;;12.00;10.75;;;;;36.87;18.62;100351.78;5017394;28;45844;-67
2022/07/19 10:32:32;;;;;;;;;13.00;11.25;;;;;36.99;18.13;100349.03;5017122;28;45598;-67
2022/07/19 10:35:36;;;;;;;;;9.50;9.50;;;;;37.11;17.07;100340.75;5016799;28;45619;-65
2022/07/19 10:38:01;;;;;;;;;9.00;8.00;;;;;37.17;17.66;100338.97;5034314;28;45532;-67
2022/07/19 10:40:46;;;;;;;;;9.25;9.25;;;;;37.25;17.74;100327.59;5020276;28;45553;-64
2022/07/19 10:43:15;;;;;;;;;10.00;8.75;;;;;37.35;17.17;100335.16;5017076;28;45296;-66
2022/07/19 10:46:01;;;;;;;;;10.00;9.25;;;;;37.45;17.33;100320.81;5016401;28;46193;-65
2022/07/19 10:48:41;;;;;;;;;12.25;9.25;;;;;37.52;16.40;100319.59;5014825;28;45325;-66
2022/07/19 10:51:10;;;;;;;;;12.00;9.00;;;;;37.66;16.73;100320.09;5017278;28;45381;-66
2022/07/19 10:53:41;;;;;;;;;12.75;11.50;;;;;37.76;16.52;100315.84;5017689;28;45167;-68
2022/07/19 10:56:20;;;;;;;;;11.50;10.00;;;;;37.84;16.35;100309.94;5016191;28;45400;-65
2022/07/19 10:58:49;;;;;;;;;8.75;8.75;;;;;37.86;16.08;100310.53;5016555;28;45421;-66
2022/07/19 11:01:19;;;;;;;;;8.50;8.50;;;;;37.91;16.50;100307.03;5016673;28;45419;-66
2022/07/19 11:03:50;;;;;;;;;10.00;10.00;;;;;37.96;16.16;100313.47;5017076;28;45400;-66
2022/07/19 11:06:24;;;;;;;;;10.25;10.25;;;;;38.05;15.98;100294.66;5016913;28;45749;-66
2022/07/19 11:08:54;;;;;;;;;10.50;9.25;;;;;38.13;15.88;100296.97;5031992;28;45577;-65
2022/07/19 11:11:20;;;;;;;;;8.00;8.00;;;;;38.25;16.27;100298.75;5016797;28;45402;-66
2022/07/19 11:13:50;;;;;;;;;17.75;16.25;;;;;38.34;15.85;100297.25;5017003;28;45491;-65
2022/07/19 11:16:17;;;;;;;;;8.00;8.00;;;;;38.40;15.52;100295.41;5016874;28;46399;-66
2022/07/19 11:18:43;;;;;;;;;8.25;6.75;;;;;38.43;15.44;100289.44;5016865;28;45480;-65